Time;durP1;ratioP1;P1;durP2;ratioP2;P2;SDS_P1;SDS_P2;PMS_P1;PMS_P2;Temp;Humidity;BMP_temperature;BMP_pressure;BME280_temperature;BME280_humidity;BME280_pressure;Samples;Min_cycle;Max_cycle;Signal;HPM_P1;HPM_P2
2021/08/27 00:02:11;;;;;;;9.33;2.40;;;;;;;12.44;100.00;100811.00;5090330;28;20082;-68
2021/08/27 00:04:37;;;;;;;8.33;2.23;;;;;;;12.40;100.00;100815.03;5090552;28;20032;-67
2021/08/27 00:07:02;;;;;;;4.50;2.03;;;;;;;12.38;100.00;100812.50;5072301;28;20071;-68
2021/08/27 00:09:28;;;;;;;13.43;2.72;;;;;;;12.32;100.00;100804.38;5090622;28;20107;-68
2021/08/27 00:11:53;;;;;;;5.67;2.57;;;;;;;12.29;100.00;100794.84;5090206;28;20397;-67
2021/08/27 00:14:19;;;;;;;12.45;3.17;;;;;;;12.30;100.00;100803.69;5090303;28;20089;-68
2021/08/27 00:16:45;;;;;;;6.43;1.83;;;;;;;12.21;100.00;100793.00;5090171;28;20570;-68
2021/08/27 00:19:10;;;;;;;7.43;2.37;;;;;;;12.17;100.00;100797.03;5090341;28;20057;-68
2021/08/27 00:21:36;;;;;;;6.83;1.70;;;;;;;12.20;100.00;100798.53;5090341;28;20653;-68
2021/08/27 00:24:03;;;;;;;5.33;1.63;;;;;;;12.23;100.00;100798.19;5089921;28;20415;-68
2021/08/27 00:26:29;;;;;;;4.82;1.92;;;;;;;12.23;100.00;100796.34;5086910;22;20032;-68
2021/08/27 00:28:55;;;;;;;;;;;;;;;12.19;100.00;100803.03;5089542;28;20028;-68
2021/08/27 00:31:20;;;;;;;;;;;;;;;12.22;100.00;100794.69;5089755;28;19966;-68
2021/08/27 00:33:45;;;;;;;14.33;2.23;;;;;;;12.19;100.00;100794.19;5088773;28;19911;-68
2021/08/27 00:36:11;;;;;;;8.17;2.67;;;;;;;12.17;100.00;100789.00;5054263;28;20360;-68
2021/08/27 00:38:36;;;;;;;7.30;1.73;;;;;;;12.19;100.00;100786.16;5070727;28;20031;-68
2021/08/27 00:44:42;;;;;;;10.77;2.45;;;;;;;12.22;100.00;100783.97;5088430;28;20109;-67
2021/08/27 00:47:08;;;;;;;6.50;2.50;;;;;;;12.28;100.00;100781.63;5087942;28;20044;-67
2021/08/27 00:49:33;;;;;;;11.60;2.47;;;;;;;12.31;100.00;100783.94;5088494;28;20180;-67
2021/08/27 00:51:58;;;;;;;12.10;1.90;;;;;;;12.31;100.00;100778.59;5087984;28;20036;-67
2021/08/27 00:54:25;;;;;;;7.43;1.97;;;;;;;12.30;100.00;100771.56;5088286;28;20287;-68
2021/08/27 00:56:50;;;;;;;9.50;2.58;;;;;;;12.35;100.00;100771.88;5088457;28;20270;-67
2021/08/27 00:59:16;;;;;;;7.67;2.20;;;;;;;12.32;100.00;100767.72;5070461;28;20062;-68
2021/08/27 01:01:42;;;;;;;9.70;1.92;;;;;;;12.39;100.00;100762.50;5088381;28;20039;-67
2021/08/27 01:04:08;;;;;;;6.00;2.30;;;;;;;12.35;100.00;100772.72;5088135;28;20070;-67
2021/08/27 01:06:50;;;;;;;6.57;2.67;;;;;;;12.44;100.00;100776.19;5088033;28;20060;-67
2021/08/27 01:09:33;;;;;;;5.43;1.73;;;;;;;12.37;100.00;100761.84;5088230;28;20036;-67
2021/08/27 01:12:20;;;;;;;14.00;2.95;;;;;;;12.38;100.00;100768.84;5070266;28;20036;-67
2021/08/27 01:14:54;;;;;;;11.38;2.35;;;;;;;12.42;100.00;100770.19;5053255;28;20032;-67
2021/08/27 01:17:27;;;;;;;12.63;3.13;;;;;;;12.46;100.00;100775.00;5070112;28;20028;-67
2021/08/27 01:20:18;;;;;;;7.88;1.75;;;;;;;12.51;100.00;100769.13;5068787;28;20460;-67
2021/08/27 01:23:07;;;;;;;11.88;2.05;;;;;;;12.50;100.00;100759.41;5087749;28;20097;-67
2021/08/27 01:25:36;;;;;;;7.20;1.40;;;;;;;12.45;100.00;100761.78;5087935;28;20050;-67
2021/08/27 01:28:04;;;;;;;8.88;1.90;;;;;;;12.43;100.00;100763.81;5087738;28;20039;-67
2021/08/27 01:30:48;;;;;;;14.23;2.20;;;;;;;12.48;100.00;100753.44;5069992;28;20136;-67
2021/08/27 01:33:19;;;;;;;13.35;2.72;;;;;;;12.54;100.00;100743.84;5087710;28;20040;-67
2021/08/27 01:35:49;;;;;;;11.60;2.03;;;;;;;12.52;100.00;100752.03;5069506;28;20110;-67
2021/08/27 01:38:16;;;;;;;15.93;2.15;;;;;;;12.48;100.00;100752.56;5069839;28;20027;-67
2021/08/27 01:40:47;;;;;;;12.48;3.15;;;;;;;12.50;100.00;100746.03;5087527;28;20433;-67
2021/08/27 01:43:15;;;;;;;5.65;1.60;;;;;;;12.49;100.00;100755.09;5053174;28;20031;-67
2021/08/27 01:45:44;;;;;;;7.25;2.60;;;;;;;12.56;100.00;100758.72;5087311;28;20039;-67
2021/08/27 01:48:11;;;;;;;6.85;1.48;;;;;;;12.57;100.00;100755.06;5069705;28;20520;-67
2021/08/27 01:50:36;;;;;;;;;;;;;;;12.55;100.00;100757.06;5087616;28;20078;-67
2021/08/27 01:53:02;;;;;;;;;;;;;;;12.55;100.00;100765.09;5087252;28;19980;-67
2021/08/27 01:55:28;;;;;;;9.93;1.90;;;;;;;12.51;100.00;100755.75;5087519;28;20260;-67
2021/08/27 01:57:54;;;;;;;4.68;1.63;;;;;;;12.54;100.00;100760.75;5086301;28;20032;-67
2021/08/27 02:00:21;;;;;;;6.43;1.90;;;;;;;12.51;100.00;100754.91;5087681;28;20150;-67
2021/08/27 02:02:49;;;;;;;11.07;2.47;;;;;;;12.50;100.00;100754.06;5052725;28;20100;-67
2021/08/27 02:05:15;;;;;;;6.03;1.95;;;;;;;12.49;100.00;100763.13;5087164;28;20552;-67
2021/08/27 02:07:40;;;;;;;;;;;;;;;12.51;100.00;100765.63;5087424;28;20111;-67
2021/08/27 02:10:06;;;;;;;18.48;3.15;;;;;;;12.51;100.00;100758.41;5087426;28;19991;-66
2021/08/27 02:12:32;;;;;;;8.02;2.67;;;;;;;12.43;100.00;100758.44;5069178;28;20050;-66
2021/08/27 02:14:59;;;;;;;3.67;1.45;;;;;;;12.46;100.00;100758.13;5069306;28;20063;-66
2021/08/27 02:17:25;;;;;;;9.40;2.20;;;;;;;12.40;100.00;100764.97;5069060;28;20131;-67
2021/08/27 02:19:51;;;;;;;5.97;2.67;;;;;;;12.34;100.00;100759.47;5069486;28;20059;-67
2021/08/27 02:22:17;;;;;;;;;;;;;;;12.28;100.00;100765.56;5087212;28;20032;-67
2021/08/27 02:24:45;;;;;;;;;;;;;;;12.20;100.00;100759.22;5087600;28;19912;-67
2021/08/27 02:27:11;;;;;;;10.48;2.13;;;;;;;12.21;100.00;100765.41;5068902;28;19952;-67
2021/08/27 02:29:39;;;;;;;6.88;2.65;;;;;;;12.25;100.00;100766.75;5069612;28;20027;-67
2021/08/27 02:32:09;;;;;;;10.02;2.40;;;;;;;12.23;100.00;100753.50;5087211;28;20032;-67
2021/08/27 02:34:38;;;;;;;5.20;2.67;;;;;;;12.20;100.00;100761.91;5069073;28;20040;-67
2021/08/27 02:37:06;;;;;;;6.00;2.55;;;;;;;12.15;100.00;100760.72;5086888;28;20032;-67
2021/08/27 02:39:31;;;;;;;13.88;3.10;;;;;;;12.17;100.00;100754.19;5069178;28;20127;-67
2021/08/27 02:41:57;;;;;;;4.72;2.00;;;;;;;12.29;100.00;100756.50;5052547;28;20126;-67
2021/08/27 02:44:25;;;;;;;5.05;1.77;;;;;;;12.25;100.00;100746.16;5087006;28;20064;-67
2021/08/27 02:46:50;;;;;;;8.85;2.42;;;;;;;12.28;100.00;100757.53;5086752;28;20089;-67
2021/08/27 02:49:16;;;;;;;7.80;2.27;;;;;;;12.32;100.00;100748.97;5086440;28;20035;-67
2021/08/27 02:51:52;;;;;;;5.80;2.25;;;;;;;12.35;100.00;100743.25;5086451;28;20028;-67
2021/08/27 02:54:21;;;;;;;12.63;2.83;;;;;;;12.32;100.00;100745.47;5086898;28;20371;-67
2021/08/27 02:56:49;;;;;;;9.10;2.40;;;;;;;12.31;100.00;100749.97;5068881;28;20043;-66
2021/08/27 02:59:17;;;;;;;16.58;2.95;;;;;;;12.37;100.00;100743.09;5068897;28;20665;-66
2021/08/27 03:01:52;;;;;;;8.98;2.40;;;;;;;12.39;100.00;100747.25;5052308;28;20440;-67
2021/08/27 03:04:28;;;;;;;7.75;2.38;;;;;;;12.41;100.00;100739.06;5068626;28;20529;-67
2021/08/27 03:07:07;;;;;;;11.40;2.17;;;;;;;12.46;100.00;100739.38;5051990;28;20047;-67
2021/08/27 03:09:42;;;;;;;17.90;2.08;;;;;;;12.47;100.00;100733.00;5089175;28;20068;-67
2021/08/27 03:12:11;;;;;;;19.05;3.20;;;;;;;12.42;100.00;100727.34;5090618;28;20036;-67
2021/08/27 03:14:40;;;;;;;22.77;2.92;;;;;;;12.44;100.00;100722.66;5072298;28;20485;-67
2021/08/27 03:17:10;;;;;;;14.23;2.40;;;;;;;12.49;100.00;100722.13;5072180;28;20066;-67
2021/08/27 03:19:43;;;;;;;14.73;2.75;;;;;;;12.50;100.00;100724.59;5072374;28;20531;-66
2021/08/27 03:22:18;;;;;;;13.52;2.58;;;;;;;12.50;100.00;100710.38;5072299;28;20043;-67
2021/08/27 03:24:52;;;;;;;19.23;2.95;;;;;;;12.57;100.00;100722.91;5090012;28;20048;-67
2021/08/27 03:27:21;;;;;;;8.98;2.13;;;;;;;12.60;100.00;100721.72;5090186;28;20032;-67
2021/08/27 03:29:52;;;;;;;10.38;2.45;;;;;;;12.62;100.00;100715.19;5090269;28;20020;-67
2021/08/27 03:32:19;;;;;;;8.70;1.73;;;;;;;12.63;100.00;100721.38;5072453;28;20368;-66
2021/08/27 03:34:45;;;;;;;;;;;;;;;12.58;100.00;100711.19;5090437;28;20035;-66
2021/08/27 03:37:11;;;;;;;;;;;;;;;12.61;100.00;100715.34;5072595;28;20015;-67
2021/08/27 03:39:36;;;;;;;;;;;;;;;12.60;100.00;100717.19;5072761;28;20019;-67
2021/08/27 03:42:03;;;;;;;8.10;1.55;;;;;;;12.60;100.00;100705.66;5089739;28;19912;-67
2021/08/27 03:44:31;;;;;;;8.82;2.05;;;;;;;12.61;100.00;100702.78;5072329;28;20016;-67
2021/08/27 03:46:57;;;;;;;11.45;1.83;;;;;;;12.63;100.00;100699.94;5071630;28;20468;-71
2021/08/27 03:49:24;;;;;;;5.18;1.75;;;;;;;12.60;100.00;100701.13;5089839;28;20478;-71
2021/08/27 03:51:49;;;;;;;8.55;1.75;;;;;;;12.62;100.00;100707.16;5071815;28;20024;-71
2021/08/27 03:54:17;;;;;;;4.95;1.73;;;;;;;12.61;100.00;100702.78;5071690;28;20456;-71
2021/08/27 03:56:43;;;;;;;2.72;1.40;;;;;;;12.59;100.00;100694.09;5089342;28;20024;-72
2021/08/27 03:59:11;;;;;;;8.55;1.35;;;;;;;12.57;100.00;100701.50;5089770;28;20456;-71
2021/08/27 04:01:36;;;;;;;8.88;1.20;;;;;;;12.58;100.00;100707.69;5089179;28;20059;-71
2021/08/27 04:04:01;;;;;;;1.90;0.90;;;;;;;12.63;100.00;100708.81;5089455;28;20456;-70
2021/08/27 04:06:27;;;;;;;3.40;1.20;;;;;;;12.64;100.00;100720.34;5071211;28;20028;-70
2021/08/27 04:08:52;;;;;;;3.33;1.30;;;;;;;12.65;100.00;100722.03;5071771;28;20098;-70
2021/08/27 04:11:18;;;;;;;3.50;1.27;;;;;;;12.65;100.00;100719.34;5089195;28;20039;-69
2021/08/27 04:13:44;;;;;;;3.92;1.13;;;;;;;12.70;100.00;100716.13;5071445;28;20103;-69
2021/08/27 04:16:10;;;;;;;9.10;1.63;;;;;;;12.66;100.00;100716.47;5070994;28;20042;-69
2021/08/27 04:18:36;;;;;;;5.82;1.45;;;;;;;12.67;100.00;100722.69;5088820;28;20032;-69
2021/08/27 04:21:02;;;;;;;7.40;2.33;;;;;;;12.73;100.00;100715.78;5070717;28;20032;-69
2021/08/27 04:23:28;;;;;;;;;;;;;;;12.74;100.00;100725.50;5089485;28;20373;-69
2021/08/27 04:25:53;;;;;;;;;;;;;;;12.75;100.00;100716.44;5071661;28;20006;-69
2021/08/27 04:28:18;;;;;;;2.00;1.10;;;;;;;12.75;100.00;100721.78;5088538;28;20015;-69
2021/08/27 04:30:44;;;;;;;5.67;1.10;;;;;;;12.82;100.00;100722.75;5089078;28;20063;-69
2021/08/27 04:33:10;;;;;;;3.67;1.00;;;;;;;12.77;100.00;100734.00;5054029;28;20491;-69
2021/08/27 04:35:35;;;;;;;8.13;1.70;;;;;;;12.83;100.00;100727.94;5091754;28;20036;-70
2021/08/27 04:38:01;;;;;;;5.30;1.30;;;;;;;12.79;100.00;100726.63;5088921;28;20062;-71
2021/08/27 04:40:27;;;;;;;4.50;1.40;;;;;;;12.86;100.00;100727.56;5088918;28;20082;-71
2021/08/27 04:42:52;;;;;;;4.68;1.40;;;;;;;12.89;100.00;100737.09;5054278;28;20451;-71
2021/08/27 04:45:18;;;;;;;7.20;1.40;;;;;;;12.86;100.00;100724.06;5088697;28;20126;-71
2021/08/27 04:47:43;;;;;;;3.15;1.52;;;;;;;12.86;100.00;100732.09;5070284;28;20039;-70
2021/08/27 04:50:10;;;;;;;3.83;1.30;;;;;;;12.88;100.00;100730.09;5071162;28;20093;-70
2021/08/27 04:52:36;;;;;;;6.70;1.27;;;;;;;12.93;100.00;100732.25;5054264;28;20368;-70
2021/08/27 04:55:03;;;;;;;5.10;1.25;;;;;;;12.92;100.00;100736.75;5088391;28;20111;-70
2021/08/27 04:57:29;;;;;;;11.00;1.90;;;;;;;12.93;100.00;100741.09;5070463;28;20071;-70
2021/08/27 04:59:54;;;;;;;11.75;1.40;;;;;;;12.95;100.00;100744.44;5088864;28;20146;-71
2021/08/27 05:02:20;;;;;;;7.60;2.20;;;;;;;12.94;100.00;100745.44;5070044;28;20044;-72
2021/08/27 05:04:45;;;;;;;3.60;1.53;;;;;;;12.91;100.00;100748.47;5053564;28;20038;-72
2021/08/27 05:07:11;;;;;;;8.10;1.70;;;;;;;12.93;100.00;100751.00;5088229;28;20036;-71
2021/08/27 05:09:37;;;;;;;4.93;1.85;;;;;;;13.02;100.00;100758.78;5070240;28;20028;-71
2021/08/27 05:12:02;;;;;;;2.90;1.23;;;;;;;12.99;100.00;100766.34;5070410;28;20046;-71
2021/08/27 05:14:28;;;;;;;3.10;1.10;;;;;;;12.99;100.00;100763.66;5087734;28;20023;-71
2021/08/27 05:16:53;;;;;;;2.23;1.00;;;;;;;12.95;100.00;100762.38;5087836;28;20332;-73
2021/08/27 05:19:18;;;;;;;9.50;1.80;;;;;;;13.02;100.00;100771.38;5088904;28;20177;-73
2021/08/27 05:21:44;;;;;;;7.70;1.67;;;;;;;13.00;100.00;100776.91;5089097;28;20043;-72
2021/08/27 05:24:09;;;;;;;6.27;1.57;;;;;;;13.04;100.00;100778.22;5089022;28;20539;-72
2021/08/27 05:26:35;;;;;;;3.47;1.40;;;;;;;13.02;100.00;100774.88;5089015;28;20468;-72
2021/08/27 05:29:02;;;;;;;2.78;1.67;;;;;;;13.05;100.00;100779.88;5071525;28;20036;-72
2021/08/27 05:31:28;;;;;;;5.43;1.63;;;;;;;13.08;100.00;100779.50;5070850;28;20040;-72
2021/08/27 05:33:53;;;;;;;7.55;1.60;;;;;;;13.08;100.00;100784.88;5089235;28;20035;-72
2021/08/27 05:36:18;;;;;;;5.53;1.83;;;;;;;13.12;100.00;100785.34;5088548;28;20032;-71
2021/08/27 05:38:45;;;;;;;4.53;1.40;;;;;;;13.23;100.00;100790.31;5071348;28;20479;-72
2021/08/27 05:41:11;;;;;;;5.18;1.95;;;;;;;13.28;100.00;100787.13;5088932;28;20445;-73
2021/08/27 05:43:36;;;;;;;5.33;1.70;;;;;;;13.35;100.00;100779.19;5071254;28;20051;-72
2021/08/27 05:46:02;;;;;;;6.73;2.43;;;;;;;13.45;100.00;100785.16;5088233;28;20189;-72
2021/08/27 05:48:27;;;;;;;4.78;1.30;;;;;;;13.43;100.00;100782.63;5088609;28;20035;-71
2021/08/27 05:50:53;;;;;;;8.53;1.33;;;;;;;13.47;100.00;100789.31;5088663;28;20071;-71
2021/08/27 05:53:18;;;;;;;3.83;1.63;;;;;;;13.44;100.00;100781.63;5088895;28;20093;-71
2021/08/27 05:55:44;;;;;;;5.93;1.77;;;;;;;13.42;100.00;100791.72;5070540;28;20639;-71
2021/08/27 05:58:09;;;;;;;3.50;1.63;;;;;;;13.35;100.00;100785.41;5088825;28;20508;-70
2021/08/27 06:00:35;;;;;;;3.30;0.90;;;;;;;13.50;100.00;100793.47;5070759;28;20044;-71
2021/08/27 06:03:00;;;;;;;6.27;1.90;;;;;;;13.47;100.00;100789.31;5070771;28;20036;-71
2021/08/27 06:05:26;;;;;;;2.67;1.27;;;;;;;13.45;100.00;100785.97;5070999;28;20274;-71
2021/08/27 06:07:51;;;;;;;5.40;1.33;;;;;;;13.56;100.00;100798.13;5088265;28;20478;-71
2021/08/27 06:10:17;;;;;;;4.33;1.30;;;;;;;13.43;100.00;100793.34;5071041;28;20111;-71
2021/08/27 06:12:43;;;;;;;3.67;1.35;;;;;;;13.52;100.00;100797.66;5088450;28;20185;-71
2021/08/27 06:15:09;;;;;;;;;;;;;;;13.57;100.00;100798.97;5088832;28;20032;-71
2021/08/27 06:17:35;;;;;;;9.38;0.95;;;;;;;13.58;100.00;100800.59;5087989;28;19926;-70
2021/08/27 06:20:00;;;;;;;5.60;1.43;;;;;;;13.69;100.00;100801.00;5088646;28;20047;-71
2021/08/27 06:22:26;;;;;;;4.53;1.20;;;;;;;13.73;100.00;100802.31;5088131;28;20128;-71
2021/08/27 06:24:51;;;;;;;6.53;2.00;;;;;;;13.65;100.00;100815.81;5054052;28;20031;-71
2021/08/27 06:27:17;;;;;;;4.88;1.52;;;;;;;13.59;100.00;100810.34;5087962;28;20063;-71
2021/08/27 06:29:43;;;;;;;10.00;2.25;;;;;;;13.58;100.00;100806.84;5088454;28;20154;-71
2021/08/27 06:32:08;;;;;;;4.07;1.37;;;;;;;13.57;100.00;100805.16;5087951;28;20047;-71
2021/08/27 06:34:34;;;;;;;2.40;1.15;;;;;;;13.65;100.00;100817.66;5088259;28;20059;-71
2021/08/27 06:36:59;;;;;;;2.73;1.20;;;;;;;13.60;100.00;100809.31;5070094;28;20539;-71
2021/08/27 06:39:25;;;;;;;3.13;1.30;;;;;;;13.57;100.00;100817.72;5088397;28;20438;-71
2021/08/27 06:41:51;;;;;;;4.78;1.60;;;;;;;13.59;100.00;100818.41;5088105;28;20028;-71
2021/08/27 06:44:16;;;;;;;2.70;1.20;;;;;;;13.57;100.00;100825.78;5055247;28;20050;-71
2021/08/27 06:46:45;;;;;;;2.20;1.17;;;;;;;13.56;100.00;100824.13;5057153;28;20379;-71
2021/08/27 06:49:12;;;;;;;3.30;1.10;;;;;;;13.57;100.00;100823.94;5074094;28;20127;-71
2021/08/27 06:51:39;;;;;;;3.20;1.60;;;;;;;13.55;100.00;100838.53;5120577;22;20080;-68
2021/08/27 06:54:04;;;;;;;2.22;1.40;;;;;;;13.59;100.00;100834.50;5096646;22;20055;-71
2021/08/27 06:56:30;;;;;;;4.73;1.60;;;;;;;13.58;100.00;100827.44;5090652;28;20051;-71
2021/08/27 06:58:55;;;;;;;4.90;1.40;;;;;;;13.62;100.00;100834.13;5072711;28;20039;-71
2021/08/27 07:01:21;;;;;;;4.40;1.27;;;;;;;13.80;100.00;100825.75;5090690;28;20034;-71
2021/08/27 07:03:46;;;;;;;2.27;1.27;;;;;;;14.07;100.00;100821.63;5056055;28;20038;-71
2021/08/27 07:06:13;;;;;;;2.13;1.40;;;;;;;14.84;100.00;100821.25;5089761;28;20028;-71
2021/08/27 07:08:38;;;;;;;2.33;0.88;;;;;;;14.88;100.00;100819.84;5072518;28;20732;-70
2021/08/27 07:11:04;;;;;;;1.60;1.08;;;;;;;15.67;100.00;100821.69;5090674;28;20445;-71
2021/08/27 07:13:29;;;;;;;2.67;1.07;;;;;;;16.55;98.04;100826.66;5072186;28;20490;-71
2021/08/27 07:15:56;;;;;;;4.30;1.17;;;;;;;16.83;91.32;100831.97;5072538;28;20042;-71
2021/08/27 07:18:22;;;;;;;1.17;0.98;;;;;;;16.46;90.01;100829.53;5073232;28;20035;-71
2021/08/27 07:20:48;;;;;;;1.67;1.00;;;;;;;16.18;92.84;100834.94;5073208;28;20123;-71
2021/08/27 07:23:14;;;;;;;1.77;1.17;;;;;;;16.70;92.14;100843.53;5091252;28;20436;-70
2021/08/27 07:25:40;;;;;;;3.00;1.17;;;;;;;16.80;89.54;100837.78;5073107;28;20093;-71
2021/08/27 07:28:05;;;;;;;;;;;;;;;16.75;91.10;100843.75;5073451;28;20040;-71
2021/08/27 07:30:30;;;;;;;;;;;;;;;17.17;91.10;100847.25;5091782;28;20425;-71
2021/08/27 07:32:56;;;;;;;1.20;0.80;;;;;;;17.11;90.74;100839.97;5091184;28;19947;-71
2021/08/27 07:35:21;;;;;;;2.17;0.63;;;;;;;16.56;90.46;100844.50;5073012;28;20035;-70
2021/08/27 07:37:46;;;;;;;1.07;0.70;;;;;;;16.12;92.23;100837.59;5110833;22;20096;-83
2021/08/27 07:40:15;;;;;;;4.03;1.03;;;;;;;15.57;93.47;100840.84;5109536;28;20028;-85
2021/08/27 07:42:41;;;;;;;6.15;1.02;;;;;;;15.51;94.54;100838.94;5071800;28;20020;-87
2021/08/27 07:45:07;;;;;;;2.47;1.17;;;;;;;15.49;95.66;100853.59;5086549;28;20012;-86
2021/08/27 07:47:32;;;;;;;1.75;0.95;;;;;;;15.59;96.21;100838.81;5089987;28;20067;-85
2021/08/27 07:49:58;;;;;;;2.83;1.30;;;;;;;15.47;95.62;100851.09;5079897;28;20503;-86
2021/08/27 07:52:23;;;;;;;2.20;0.97;;;;;;;15.41;95.53;100843.81;5096426;28;20484;-85
2021/08/27 07:54:49;;;;;;;4.00;0.90;;;;;;;15.39;94.71;100844.00;5078681;28;20019;-87
2021/08/27 07:57:14;;;;;;;2.60;0.77;;;;;;;15.60;94.79;100861.16;5080679;28;20373;-87
2021/08/27 07:59:39;;;;;;;1.07;0.90;;;;;;;15.65;95.19;100857.91;5079779;28;20063;-86
2021/08/27 08:02:05;;;;;;;1.73;0.90;;;;;;;15.31;95.24;100862.97;5080864;28;20134;-84
2021/08/27 08:04:31;;;;;;;3.72;1.05;;;;;;;15.28;94.46;100868.69;5079929;28;20027;-86
2021/08/27 08:06:56;;;;;;;3.57;1.27;;;;;;;15.40;95.76;100872.56;5076588;28;20043;-87
2021/08/27 08:09:21;;;;;;;2.53;0.70;;;;;;;15.69;95.59;100872.63;5081988;28;20036;-85
2021/08/27 08:11:47;;;;;;;1.60;0.63;;;;;;;15.77;94.44;100875.22;5077068;28;20023;-86
2021/08/27 08:14:13;;;;;;;1.17;0.50;;;;;;;15.56;94.14;100879.53;5094007;28;20651;-86
2021/08/27 08:16:38;;;;;;;11.07;1.00;;;;;;;15.58;94.13;100882.06;5075291;28;20081;-86
2021/08/27 08:19:04;;;;;;;1.50;0.60;;;;;;;15.47;93.36;100888.75;5059506;28;20016;-86
2021/08/27 08:21:30;;;;;;;2.25;0.55;;;;;;;15.45;94.73;100890.81;5061067;28;20508;-85
2021/08/27 08:23:56;;;;;;;0.93;0.80;;;;;;;15.58;95.09;100890.94;5076526;28;20119;-87
2021/08/27 08:26:25;;;;;;;0.82;0.60;;;;;;;15.79;93.27;100900.09;5076040;28;20020;-87
2021/08/27 08:28:53;;;;;;;1.13;0.90;;;;;;;16.08;91.80;100903.63;5059792;28;20036;-87
2021/08/27 08:31:20;;;;;;;2.05;0.80;;;;;;;16.16;91.92;100898.13;5068063;28;20039;-87
2021/08/27 08:33:50;;;;;;;4.25;1.27;;;;;;;16.36;91.40;100904.47;5066200;28;20085;-87
2021/08/27 08:36:16;;;;;;;3.58;1.10;;;;;;;16.68;90.41;100907.59;5078024;28;20088;-84
2021/08/27 08:38:42;;;;;;;1.58;0.70;;;;;;;17.30;87.81;100906.66;5079472;28;20035;-88
2021/08/27 08:41:08;;;;;;;2.10;0.93;;;;;;;17.43;84.52;100908.53;5078419;28;20118;-87
2021/08/27 08:43:33;;;;;;;3.13;0.73;;;;;;;16.35;85.58;100913.59;5077331;28;20108;-85
2021/08/27 08:46:00;;;;;;;1.17;0.80;;;;;;;16.55;89.25;100918.28;5081563;28;20043;-88
2021/08/27 08:48:28;;;;;;;6.47;1.25;;;;;;;16.70;88.90;100918.19;5096346;28;20034;-87
2021/08/27 08:50:54;;;;;;;2.70;1.00;;;;;;;17.08;86.98;100924.00;5079327;28;20037;-86
2021/08/27 08:53:22;;;;;;;2.15;1.00;;;;;;;17.53;83.06;100921.66;5078426;28;20040;-83
2021/08/27 08:55:49;;;;;;;2.05;0.82;;;;;;;18.26;80.02;100929.88;5060962;28;20024;-85
2021/08/27 08:58:14;;;;;;;1.63;0.80;;;;;;;18.14;79.64;100918.00;5058501;28;20959;-85
2021/08/27 09:00:40;;;;;;;0.83;0.60;;;;;;;17.48;80.91;100930.34;5073888;28;20039;-85
2021/08/27 09:03:06;;;;;;;1.23;0.80;;;;;;;16.93;83.04;100939.47;5077998;28;20028;-87
2021/08/27 09:05:32;;;;;;;2.53;0.95;;;;;;;16.45;83.67;100934.81;5060099;28;20528;-87
2021/08/27 09:07:57;;;;;;;1.67;0.88;;;;;;;16.32;86.14;100932.84;5092766;28;20130;-87
2021/08/27 09:10:23;;;;;;;2.73;1.07;;;;;;;16.37;85.24;100951.97;5062749;28;20056;-87
2021/08/27 09:12:50;;;;;;;1.35;1.15;;;;;;;16.32;86.83;100946.31;5066457;28;20119;-86
2021/08/27 09:15:23;;;;;;;2.03;0.80;;;;;;;16.98;85.06;100932.47;5067007;28;20116;-87
2021/08/27 09:17:50;;;;;;;2.35;0.88;;;;;;;17.06;82.80;100928.75;5081711;28;20039;-87
2021/08/27 09:20:22;;;;;;;3.05;0.88;;;;;;;17.35;82.47;100945.66;5089553;28;20418;-85
2021/08/27 09:22:55;;;;;;;1.15;0.80;;;;;;;17.60;81.19;100949.50;5084533;28;20118;-85
2021/08/27 09:25:23;;;;;;;2.95;1.30;;;;;;;17.56;79.94;100953.66;5077731;28;20052;-85
2021/08/27 09:28:18;;;;;;;2.40;0.80;;;;;;;17.83;79.80;100956.44;5057684;28;20036;-84
2021/08/27 09:30:46;;;;;;;5.07;1.23;;;;;;;17.76;78.83;100959.09;5067830;28;20059;-86
2021/08/27 09:33:18;;;;;;;1.95;0.95;;;;;;;17.76;79.97;100966.34;5078533;28;20105;-87
2021/08/27 09:36:00;;;;;;;1.20;0.80;;;;;;;17.23;79.48;100954.38;5085431;28;20032;-86
2021/08/27 09:38:35;;;;;;;4.97;1.00;;;;;;;17.11;81.37;100976.72;5068295;28;20027;-85
2021/08/27 09:41:04;;;;;;;1.92;0.95;;;;;;;16.97;81.22;100970.41;5070951;28;20475;-86
2021/08/27 09:43:51;;;;;;;2.33;0.82;;;;;;;17.19;81.14;100980.06;5062806;28;20046;-86
2021/08/27 09:46:37;;;;;;;1.98;1.08;;;;;;;17.34;80.98;100968.31;5068718;28;20031;-86
2021/08/27 09:49:05;;;;;;;1.92;1.00;;;;;;;17.43;81.74;100975.19;5089595;28;20400;-85
2021/08/27 09:51:43;;;;;;;3.65;0.90;;;;;;;17.37;80.83;100973.28;5075904;28;20027;-86
2021/08/27 09:54:22;;;;;;;1.42;0.90;;;;;;;17.37;80.00;100976.84;5060284;28;20440;-89
2021/08/27 09:56:49;;;;;;;1.10;0.98;;;;;;;17.19;80.74;100973.84;5074875;28;20057;-85
2021/08/27 09:59:15;;;;;;;2.58;0.93;;;;;;;16.88;81.80;100984.06;5084237;28;20050;-86
2021/08/27 10:01:50;;;;;;;2.78;0.75;;;;;;;16.62;83.16;100989.22;5085760;28;20104;-86
2021/08/27 10:04:16;;;;;;;3.65;0.90;;;;;;;16.71;83.51;100984.53;5068381;28;20035;-86
2021/08/27 10:06:43;;;;;;;5.07;1.52;;;;;;;16.79;82.82;100990.66;5065664;28;20064;-85
2021/08/27 10:09:09;;;;;;;3.58;0.85;;;;;;;16.42;83.07;100995.31;5067566;28;20027;-86
2021/08/27 10:11:35;;;;;;;4.57;0.85;;;;;;;16.59;83.27;101005.81;5066389;28;20032;-85
2021/08/27 10:14:01;;;;;;;1.30;0.90;;;;;;;16.92;82.55;100995.28;5075616;28;20033;-86
2021/08/27 10:16:30;;;;;;;3.40;0.80;;;;;;;18.33;79.40;101002.81;5067836;28;20042;-86
2021/08/27 10:19:03;;;;;;;3.03;1.27;;;;;;;18.79;73.21;101001.16;5074281;28;20043;-87
2021/08/27 10:21:30;;;;;;;1.40;0.73;;;;;;;19.47;73.92;101004.28;5071960;28;20097;-87
2021/08/27 10:23:55;;;;;;;1.75;0.80;;;;;;;19.04;73.46;100993.22;5091607;28;20011;-86
2021/08/27 10:26:28;;;;;;;1.87;0.70;;;;;;;19.43;73.16;100980.56;5081120;28;20081;-85
2021/08/27 10:28:54;;;;;;;1.10;1.00;;;;;;;20.62;68.82;100987.09;5078036;28;20027;-87
2021/08/27 10:31:47;;;;;;;1.40;0.80;;;;;;;20.96;68.08;100985.72;5075157;28;20026;-86
2021/08/27 10:34:17;;;;;;;4.03;0.90;;;;;;;19.72;70.01;100993.56;5095167;28;20119;-85
2021/08/27 10:36:44;;;;;;;1.08;0.90;;;;;;;18.79;72.08;100996.59;5076755;28;20508;-85
2021/08/27 10:39:11;;;;;;;3.38;0.88;;;;;;;19.98;69.75;100994.47;5071438;28;20039;-84
2021/08/27 10:41:40;;;;;;;;;;;;;;;20.36;67.94;100996.28;5070724;28;20043;-84
2021/08/27 10:44:11;;;;;;;2.85;0.57;;;;;;;20.95;66.79;100994.06;5087168;28;19918;-84
2021/08/27 10:46:48;;;;;;;1.30;0.80;;;;;;;21.60;64.33;100997.06;5065437;28;20042;-85
2021/08/27 10:49:15;;;;;;;0.73;0.57;;;;;;;20.22;67.67;101001.78;5072931;28;20035;-85
2021/08/27 10:51:43;;;;;;;2.47;0.70;;;;;;;20.00;67.91;100997.78;5089978;28;20039;-82
2021/08/27 10:54:13;;;;;;;2.33;0.77;;;;;;;19.18;69.03;101000.25;5079345;28;20046;-83
2021/08/27 10:56:53;;;;;;;2.97;0.57;;;;;;;18.96;70.12;101003.22;5076740;28;20037;-83
2021/08/27 10:59:24;;;;;;;2.65;0.80;;;;;;;19.00;71.17;101005.50;5072031;28;20031;-85
2021/08/27 11:01:59;;;;;;;0.77;0.50;;;;;;;19.35;69.22;101014.97;5084774;28;20077;-86
2021/08/27 11:04:27;;;;;;;1.80;0.90;;;;;;;18.83;69.81;101010.53;5058893;28;20098;-84
2021/08/27 11:07:04;;;;;;;1.08;0.60;;;;;;;20.00;68.64;101014.06;5066441;28;20035;-85
2021/08/27 11:09:31;;;;;;;2.35;0.60;;;;;;;21.26;64.42;101009.41;5091373;28;20042;-85
2021/08/27 11:12:15;;;;;;;;;;;;;;;20.59;63.98;101010.06;5064962;28;20396;-87
2021/08/27 11:15:19;;;;;;;0.77;0.75;;;;;;;21.04;64.18;101007.13;5090796;28;19923;-87
2021/08/27 11:18:16;;;;;;;2.08;1.00;;;;;;;20.82;64.83;101003.19;5074871;28;20032;-88
2021/08/27 11:20:42;;;;;;;0.90;0.73;;;;;;;22.23;61.55;101001.22;5068424;28;20056;-85
2021/08/27 11:27:15;;;;;;;0.82;0.77;;;;;;;22.02;60.05;101004.44;5058912;28;20081;-85
2021/08/27 11:29:43;;;;;;;0.85;0.70;;;;;;;22.90;58.70;101000.91;5082411;28;20035;-87
2021/08/27 11:32:16;;;;;;;1.02;0.60;;;;;;;21.84;60.76;100992.56;5066615;28;20140;-86
2021/08/27 11:34:52;;;;;;;1.00;0.50;;;;;;;20.57;62.06;101001.31;5085719;28;20031;-85
2021/08/27 11:37:19;;;;;;;0.88;0.70;;;;;;;21.04;60.98;100992.72;5069263;28;20032;-86